sensor_id;sensor_type;location;lat;lon;timestamp;pressure;altitude;pressure_sealevel;temperature;humidity
20620;BME280;10469;42.720;23.252;2023-05-23T00:01:20;94777.97;;;11.37;100.00
20620;BME280;10469;42.720;23.252;2023-05-23T00:03:47;94784.63;;;11.35;100.00
20620;BME280;10469;42.720;23.252;2023-05-23T00:06:13;94779.19;;;11.29;100.00
20620;BME280;10469;42.720;23.252;2023-05-23T00:08:39;94785.13;;;11.32;100.00
20620;BME280;10469;42.720;23.252;2023-05-23T00:11:04;94787.22;;;11.29;100.00
20620;BME280;10469;42.720;23.252;2023-05-23T00:13:30;94787.81;;;11.32;100.00
20620;BME280;10469;42.720;23.252;2023-05-23T00:15:59;94791.78;;;11.29;100.00
20620;BME280;10469;42.720;23.252;2023-05-23T00:18:24;94781.84;;;11.29;100.00
20620;BME280;10469;42.720;23.252;2023-05-23T00:20:50;94786.28;;;11.36;100.00
20620;BME280;10469;42.720;23.252;2023-05-23T00:23:16;94781.22;;;11.39;100.00
20620;BME280;10469;42.720;23.252;2023-05-23T00:25:45;94793.47;;;11.35;100.00
20620;BME280;10469;42.720;23.252;2023-05-23T00:28:17;94795.44;;;11.40;100.00
20620;BME280;10469;42.720;23.252;2023-05-23T00:30:42;94785.69;;;11.34;100.00
20620;BME280;10469;42.720;23.252;2023-05-23T00:33:07;94782.03;;;11.23;100.00
20620;BME280;10469;42.720;23.252;2023-05-23T00:35:33;94784.06;;;11.33;100.00
20620;BME280;10469;42.720;23.252;2023-05-23T00:37:59;94784.78;;;11.28;100.00
20620;BME280;10469;42.720;23.252;2023-05-23T00:40:26;94777.22;;;11.25;100.00
20620;BME280;10469;42.720;23.252;2023-05-23T00:42:52;94774.72;;;11.18;100.00
20620;BME280;10469;42.720;23.252;2023-05-23T00:45:17;94781.31;;;11.27;100.00
20620;BME280;10469;42.720;23.252;2023-05-23T00:47:43;94774.72;;;11.18;100.00
20620;BME280;10469;42.720;23.252;2023-05-23T00:50:13;94778.69;;;11.16;100.00
20620;BME280;10469;42.720;23.252;2023-05-23T00:52:40;94769.34;;;11.18;100.00
20620;BME280;10469;42.720;23.252;2023-05-23T00:55:07;94785.44;;;11.18;100.00
20620;BME280;10469;42.720;23.252;2023-05-23T00:57:33;94785.91;;;11.15;100.00
20620;BME280;10469;42.720;23.252;2023-05-23T01:00:02;94796.16;;;11.01;100.00
20620;BME280;10469;42.720;23.252;2023-05-23T01:02:29;94788.72;;;10.92;100.00
20620;BME280;10469;42.720;23.252;2023-05-23T01:04:56;94787.97;;;10.79;100.00
20620;BME280;10469;42.720;23.252;2023-05-23T01:07:22;94796.56;;;10.82;100.00
20620;BME280;10469;42.720;23.252;2023-05-23T01:09:48;94794.72;;;10.53;100.00
20620;BME280;10469;42.720;23.252;2023-05-23T01:15:17;94791.78;;;10.55;100.00
20620;BME280;10469;42.720;23.252;2023-05-23T01:18:06;94793.13;;;10.41;100.00
20620;BME280;10469;42.720;23.252;2023-05-23T01:20:37;94796.72;;;10.35;100.00
20620;BME280;10469;42.720;23.252;2023-05-23T01:23:14;94791.59;;;10.21;100.00
20620;BME280;10469;42.720;23.252;2023-05-23T01:29:21;94789.75;;;10.34;100.00
20620;BME280;10469;42.720;23.252;2023-05-23T01:31:54;94792.41;;;10.45;100.00
20620;BME280;10469;42.720;23.252;2023-05-23T01:34:21;94785.81;;;10.53;100.00
20620;BME280;10469;42.720;23.252;2023-05-23T01:36:51;94780.00;;;10.56;100.00
20620;BME280;10469;42.720;23.252;2023-05-23T01:39:18;94763.56;;;10.52;100.00
20620;BME280;10469;42.720;23.252;2023-05-23T01:41:44;94779.53;;;10.59;100.00
20620;BME280;10469;42.720;23.252;2023-05-23T01:44:10;94769.56;;;10.43;100.00
20620;BME280;10469;42.720;23.252;2023-05-23T01:46:36;94776.97;;;10.52;100.00
20620;BME280;10469;42.720;23.252;2023-05-23T01:49:04;94764.28;;;10.48;100.00
20620;BME280;10469;42.720;23.252;2023-05-23T01:51:32;94777.50;;;10.66;100.00
20620;BME280;10469;42.720;23.252;2023-05-23T01:53:58;94779.53;;;10.59;100.00
20620;BME280;10469;42.720;23.252;2023-05-23T01:56:25;94766.03;;;10.54;100.00
20620;BME280;10469;42.720;23.252;2023-05-23T01:58:51;94768.72;;;10.54;100.00
20620;BME280;10469;42.720;23.252;2023-05-23T02:01:17;94775.81;;;10.48;100.00
20620;BME280;10469;42.720;23.252;2023-05-23T02:03:43;94774.88;;;10.54;100.00
20620;BME280;10469;42.720;23.252;2023-05-23T02:06:09;94766.41;;;10.46;100.00
20620;BME280;10469;42.720;23.252;2023-05-23T02:08:34;94758.50;;;10.39;100.00
20620;BME280;10469;42.720;23.252;2023-05-23T02:11:00;94767.13;;;10.41;100.00
20620;BME280;10469;42.720;23.252;2023-05-23T02:13:25;94766.88;;;10.43;100.00
20620;BME280;10469;42.720;23.252;2023-05-23T02:15:51;94774.44;;;10.46;100.00
20620;BME280;10469;42.720;23.252;2023-05-23T02:18:16;94769.75;;;10.53;100.00
20620;BME280;10469;42.720;23.252;2023-05-23T02:20:42;94773.25;;;10.53;100.00
20620;BME280;10469;42.720;23.252;2023-05-23T02:23:08;94770.16;;;10.45;100.00
20620;BME280;10469;42.720;23.252;2023-05-23T02:25:34;94755.00;;;10.39;100.00
20620;BME280;10469;42.720;23.252;2023-05-23T02:28:00;94740.59;;;10.28;100.00
20620;BME280;10469;42.720;23.252;2023-05-23T02:30:25;94755.19;;;10.49;100.00
20620;BME280;10469;42.720;23.252;2023-05-23T02:32:51;94756.16;;;10.43;100.00
20620;BME280;10469;42.720;23.252;2023-05-23T02:35:16;94758.84;;;10.43;100.00
20620;BME280;10469;42.720;23.252;2023-05-23T02:37:41;94774.28;;;10.52;100.00
20620;BME280;10469;42.720;23.252;2023-05-23T02:40:07;94761.69;;;10.53;100.00
20620;BME280;10469;42.720;23.252;2023-05-23T02:42:33;94773.56;;;10.57;100.00
20620;BME280;10469;42.720;23.252;2023-05-23T02:44:59;94768.91;;;10.64;100.00
20620;BME280;10469;42.720;23.252;2023-05-23T02:47:24;94752.94;;;10.58;100.00
20620;BME280;10469;42.720;23.252;2023-05-23T02:49:50;94765.75;;;10.67;100.00
20620;BME280;10469;42.720;23.252;2023-05-23T02:52:15;94767.63;;;10.67;100.00
20620;BME280;10469;42.720;23.252;2023-05-23T02:54:41;94777.31;;;10.56;100.00
20620;BME280;10469;42.720;23.252;2023-05-23T02:57:07;94750.78;;;10.43;100.00
20620;BME280;10469;42.720;23.252;2023-05-23T02:59:32;94771.50;;;10.47;100.00
20620;BME280;10469;42.720;23.252;2023-05-23T03:01:58;94772.53;;;10.58;100.00
20620;BME280;10469;42.720;23.252;2023-05-23T03:04:24;94771.19;;;10.72;100.00
20620;BME280;10469;42.720;23.252;2023-05-23T03:06:49;94774.34;;;10.69;100.00
20620;BME280;10469;42.720;23.252;2023-05-23T03:09:18;94769.88;;;10.58;100.00
20620;BME280;10469;42.720;23.252;2023-05-23T03:11:44;94772.13;;;10.66;100.00
20620;BME280;10469;42.720;23.252;2023-05-23T03:14:10;94770.06;;;10.68;100.00
20620;BME280;10469;42.720;23.252;2023-05-23T03:16:35;94756.69;;;10.57;100.00
20620;BME280;10469;42.720;23.252;2023-05-23T03:19:01;94758.34;;;10.74;100.00
20620;BME280;10469;42.720;23.252;2023-05-23T03:21:26;94777.00;;;10.81;100.00
20620;BME280;10469;42.720;23.252;2023-05-23T03:23:52;94776.28;;;10.86;100.00
20620;BME280;10469;42.720;23.252;2023-05-23T03:26:18;94780.88;;;11.02;100.00
20620;BME280;10469;42.720;23.252;2023-05-23T03:28:43;94786.94;;;10.97;100.00
20620;BME280;10469;42.720;23.252;2023-05-23T03:31:09;94788.16;;;10.90;100.00
20620;BME280;10469;42.720;23.252;2023-05-23T03:33:34;94793.91;;;10.82;100.00
20620;BME280;10469;42.720;23.252;2023-05-23T03:35:59;94789.88;;;10.67;100.00
20620;BME280;10469;42.720;23.252;2023-05-23T03:38:26;94807.59;;;10.68;100.00
20620;BME280;10469;42.720;23.252;2023-05-23T03:40:52;94797.50;;;10.59;100.00
20620;BME280;10469;42.720;23.252;2023-05-23T03:43:18;94782.97;;;10.43;100.00
20620;BME280;10469;42.720;23.252;2023-05-23T03:45:43;94805.22;;;10.43;100.00
20620;BME280;10469;42.720;23.252;2023-05-23T03:48:09;94785.31;;;10.16;100.00
20620;BME280;10469;42.720;23.252;2023-05-23T03:50:35;94812.69;;;10.41;100.00
20620;BME280;10469;42.720;23.252;2023-05-23T03:53:00;94795.91;;;10.46;100.00
20620;BME280;10469;42.720;23.252;2023-05-23T03:55:26;94811.72;;;10.47;100.00
20620;BME280;10469;42.720;23.252;2023-05-23T03:57:51;94804.56;;;10.65;100.00
20620;BME280;10469;42.720;23.252;2023-05-23T04:00:17;94798.63;;;10.63;100.00
20620;BME280;10469;42.720;23.252;2023-05-23T04:02:44;94810.84;;;10.70;100.00
20620;BME280;10469;42.720;23.252;2023-05-23T04:05:14;94792.69;;;10.61;100.00
20620;BME280;10469;42.720;23.252;2023-05-23T04:07:39;94805.97;;;10.67;100.00
20620;BME280;10469;42.720;23.252;2023-05-23T04:10:06;94799.72;;;10.50;100.00
20620;BME280;10469;42.720;23.252;2023-05-23T04:12:41;94816.41;;;10.80;100.00
20620;BME280;10469;42.720;23.252;2023-05-23T04:15:07;94808.75;;;10.72;100.00
20620;BME280;10469;42.720;23.252;2023-05-23T04:17:33;94818.53;;;10.38;100.00
20620;BME280;10469;42.720;23.252;2023-05-23T04:19:59;94806.28;;;10.30;100.00
20620;BME280;10469;42.720;23.252;2023-05-23T04:22:25;94796.16;;;10.33;100.00
20620;BME280;10469;42.720;23.252;2023-05-23T04:24:50;94786.56;;;10.77;100.00
20620;BME280;10469;42.720;23.252;2023-05-23T04:27:16;94797.88;;;11.24;100.00
20620;BME280;10469;42.720;23.252;2023-05-23T04:29:41;94789.78;;;11.36;100.00
20620;BME280;10469;42.720;23.252;2023-05-23T04:32:08;94804.66;;;10.98;100.00
20620;BME280;10469;42.720;23.252;2023-05-23T04:34:33;94808.97;;;10.99;100.00
20620;BME280;10469;42.720;23.252;2023-05-23T04:37:00;94816.13;;;10.94;100.00
20620;BME280;10469;42.720;23.252;2023-05-23T04:39:28;94818.22;;;10.92;100.00
20620;BME280;10469;42.720;23.252;2023-05-23T04:41:54;94817.03;;;10.99;100.00
20620;BME280;10469;42.720;23.252;2023-05-23T04:44:23;94818.72;;;10.89;100.00
20620;BME280;10469;42.720;23.252;2023-05-23T04:46:52;94819.88;;;10.93;100.00
20620;BME280;10469;42.720;23.252;2023-05-23T04:49:17;94806.91;;;10.61;100.00
20620;BME280;10469;42.720;23.252;2023-05-23T04:51:45;94821.00;;;10.68;100.00
20620;BME280;10469;42.720;23.252;2023-05-23T04:54:11;94813.31;;;10.60;100.00
20620;BME280;10469;42.720;23.252;2023-05-23T04:56:36;94828.63;;;10.88;100.00
20620;BME280;10469;42.720;23.252;2023-05-23T04:59:02;94826.09;;;11.10;100.00
20620;BME280;10469;42.720;23.252;2023-05-23T05:01:27;94829.53;;;10.94;100.00
20620;BME280;10469;42.720;23.252;2023-05-23T05:03:53;94825.94;;;11.17;100.00
20620;BME280;10469;42.720;23.252;2023-05-23T05:06:18;94814.06;;;11.29;100.00
20620;BME280;10469;42.720;23.252;2023-05-23T05:08:45;94816.31;;;11.04;100.00
20620;BME280;10469;42.720;23.252;2023-05-23T05:11:10;94818.13;;;10.87;100.00
20620;BME280;10469;42.720;23.252;2023-05-23T05:13:36;94828.25;;;11.42;100.00
20620;BME280;10469;42.720;23.252;2023-05-23T05:16:01;94820.91;;;11.20;100.00
20620;BME280;10469;42.720;23.252;2023-05-23T05:18:28;94815.53;;;11.20;100.00
20620;BME280;10469;42.720;23.252;2023-05-23T05:20:54;94841.00;;;11.35;100.00
20620;BME280;10469;42.720;23.252;2023-05-23T05:23:23;94845.72;;;11.27;100.00
20620;BME280;10469;42.720;23.252;2023-05-23T05:25:49;94836.56;;;11.40;100.00
20620;BME280;10469;42.720;23.252;2023-05-23T05:28:15;94836.38;;;11.47;100.00
20620;BME280;10469;42.720;23.252;2023-05-23T05:30:40;94833.34;;;11.89;100.00
20620;BME280;10469;42.720;23.252;2023-05-23T05:33:06;94822.47;;;11.50;100.00
20620;BME280;10469;42.720;23.252;2023-05-23T05:35:32;94837.53;;;11.68;100.00
20620;BME280;10469;42.720;23.252;2023-05-23T05:37:59;94837.22;;;11.81;100.00
20620;BME280;10469;42.720;23.252;2023-05-23T05:40:24;94825.50;;;11.87;100.00
20620;BME280;10469;42.720;23.252;2023-05-23T05:42:50;94832.16;;;12.18;100.00
20620;BME280;10469;42.720;23.252;2023-05-23T05:45:16;94834.25;;;12.16;100.00
20620;BME280;10469;42.720;23.252;2023-05-23T05:47:42;94833.31;;;12.88;100.00
20620;BME280;10469;42.720;23.252;2023-05-23T05:50:08;94808.03;;;12.23;100.00
20620;BME280;10469;42.720;23.252;2023-05-23T05:52:35;94832.72;;;13.30;100.00
20620;BME280;10469;42.720;23.252;2023-05-23T05:57:31;94831.38;;;13.33;100.00
20620;BME280;10469;42.720;23.252;2023-05-23T05:59:57;94755.34;;;12.71;100.00
20620;BME280;10469;42.720;23.252;2023-05-23T06:02:22;94820.00;;;13.25;100.00
20620;BME280;10469;42.720;23.252;2023-05-23T06:04:48;94810.41;;;12.86;100.00
20620;BME280;10469;42.720;23.252;2023-05-23T06:07:13;94831.44;;;12.89;100.00
20620;BME280;10469;42.720;23.252;2023-05-23T06:09:39;94817.94;;;13.11;100.00
20620;BME280;10469;42.720;23.252;2023-05-23T06:12:05;94825.00;;;13.39;100.00
20620;BME280;10469;42.720;23.252;2023-05-23T06:14:30;94827.06;;;13.91;100.00
20620;BME280;10469;42.720;23.252;2023-05-23T06:16:56;94806.94;;;14.09;100.00
20620;BME280;10469;42.720;23.252;2023-05-23T06:19:21;94794.97;;;14.42;100.00
20620;BME280;10469;42.720;23.252;2023-05-23T06:21:47;94805.72;;;14.84;100.00
20620;BME280;10469;42.720;23.252;2023-05-23T06:24:13;94821.28;;;14.62;100.00
20620;BME280;10469;42.720;23.252;2023-05-23T06:26:38;94799.84;;;15.02;100.00
20620;BME280;10469;42.720;23.252;2023-05-23T06:29:07;94812.00;;;15.05;100.00
20620;BME280;10469;42.720;23.252;2023-05-23T06:31:32;94788.91;;;15.80;100.00
20620;BME280;10469;42.720;23.252;2023-05-23T06:33:58;94809.16;;;16.03;100.00
20620;BME280;10469;42.720;23.252;2023-05-23T06:36:24;94810.72;;;16.35;100.00
20620;BME280;10469;42.720;23.252;2023-05-23T06:38:49;94780.22;;;16.94;100.00
20620;BME280;10469;42.720;23.252;2023-05-23T06:41:15;94805.50;;;16.64;100.00
20620;BME280;10469;42.720;23.252;2023-05-23T06:43:40;94805.09;;;17.51;100.00
20620;BME280;10469;42.720;23.252;2023-05-23T06:46:06;94797.66;;;17.22;100.00
20620;BME280;10469;42.720;23.252;2023-05-23T06:48:31;94787.81;;;16.87;100.00
20620;BME280;10469;42.720;23.252;2023-05-23T06:50:57;94781.44;;;17.17;100.00
20620;BME280;10469;42.720;23.252;2023-05-23T06:53:23;94788.75;;;18.77;100.00
20620;BME280;10469;42.720;23.252;2023-05-23T06:55:48;94773.78;;;21.50;100.00
20620;BME280;10469;42.720;23.252;2023-05-23T06:58:14;94775.25;;;21.34;100.00
20620;BME280;10469;42.720;23.252;2023-05-23T07:00:40;94777.59;;;20.58;100.00
20620;BME280;10469;42.720;23.252;2023-05-23T07:03:06;94774.97;;;21.58;100.00
20620;BME280;10469;42.720;23.252;2023-05-23T07:05:31;94764.66;;;22.75;100.00
20620;BME280;10469;42.720;23.252;2023-05-23T07:07:58;94747.19;;;21.05;100.00
20620;BME280;10469;42.720;23.252;2023-05-23T07:10:24;94739.03;;;23.02;100.00
20620;BME280;10469;42.720;23.252;2023-05-23T07:12:50;94750.59;;;23.08;100.00
20620;BME280;10469;42.720;23.252;2023-05-23T07:15:16;94755.53;;;25.81;100.00
20620;BME280;10469;42.720;23.252;2023-05-23T07:17:42;94757.09;;;23.29;100.00
20620;BME280;10469;42.720;23.252;2023-05-23T07:20:08;94743.06;;;21.81;100.00
20620;BME280;10469;42.720;23.252;2023-05-23T07:22:33;94756.50;;;23.67;100.00
20620;BME280;10469;42.720;23.252;2023-05-23T07:24:59;94743.75;;;22.88;100.00
20620;BME280;10469;42.720;23.252;2023-05-23T07:27:25;94736.44;;;22.26;100.00
20620;BME280;10469;42.720;23.252;2023-05-23T07:29:51;94750.50;;;23.91;100.00
20620;BME280;10469;42.720;23.252;2023-05-23T07:32:17;94746.91;;;24.25;100.00
20620;BME280;10469;42.720;23.252;2023-05-23T07:34:43;94741.53;;;21.97;100.00
20620;BME280;10469;42.720;23.252;2023-05-23T07:37:08;94747.84;;;22.91;100.00
20620;BME280;10469;42.720;23.252;2023-05-23T07:39:34;94722.44;;;25.06;100.00
20620;BME280;10469;42.720;23.252;2023-05-23T07:42:00;94733.28;;;24.64;100.00
20620;BME280;10469;42.720;23.252;2023-05-23T07:44:27;94733.34;;;25.44;97.94
20620;BME280;10469;42.720;23.252;2023-05-23T07:46:52;94729.84;;;25.56;94.51
20620;BME280;10469;42.720;23.252;2023-05-23T07:49:18;94732.56;;;21.96;100.00
20620;BME280;10469;42.720;23.252;2023-05-23T07:51:44;94720.69;;;23.12;100.00
20620;BME280;10469;42.720;23.252;2023-05-23T07:54:10;94730.78;;;22.45;100.00
20620;BME280;10469;42.720;23.252;2023-05-23T07:56:35;94732.63;;;24.67;100.00
20620;BME280;10469;42.720;23.252;2023-05-23T07:59:03;94731.97;;;23.10;100.00
20620;BME280;10469;42.720;23.252;2023-05-23T08:01:29;94722.53;;;24.50;100.00
20620;BME280;10469;42.720;23.252;2023-05-23T08:03:54;94729.13;;;25.67;97.17
20620;BME280;10469;42.720;23.252;2023-05-23T08:06:21;94717.47;;;25.70;96.65
20620;BME280;10469;42.720;23.252;2023-05-23T08:08:46;94697.94;;;25.00;99.41
20620;BME280;10469;42.720;23.252;2023-05-23T08:11:12;94722.34;;;24.93;100.00
20620;BME280;10469;42.720;23.252;2023-05-23T08:26:27;94723.34;;;25.18;100.00
20620;BME280;10469;42.720;23.252;2023-05-23T08:28:59;94718.94;;;26.22;95.74
20620;BME280;10469;42.720;23.252;2023-05-23T08:31:27;94713.94;;;25.49;97.03
20620;BME280;10469;42.720;23.252;2023-05-23T08:33:52;94718.28;;;25.71;99.59
20620;BME280;10469;42.720;23.252;2023-05-23T08:36:18;94705.88;;;26.52;93.00
20620;BME280;10469;42.720;23.252;2023-05-23T08:38:44;94706.97;;;27.49;89.50
20620;BME280;10469;42.720;23.252;2023-05-23T08:41:17;94711.16;;;24.98;100.00
20620;BME280;10469;42.720;23.252;2023-05-23T08:43:43;94711.50;;;26.22;94.15
20620;BME280;10469;42.720;23.252;2023-05-23T08:46:08;94711.16;;;28.55;71.51
20620;BME280;10469;42.720;23.252;2023-05-23T08:48:37;94705.53;;;29.15;65.25
20620;BME280;10469;42.720;23.252;2023-05-23T08:51:03;94695.63;;;29.49;63.88
20620;BME280;10469;42.720;23.252;2023-05-23T08:53:30;94707.19;;;27.96;78.34
20620;BME280;10469;42.720;23.252;2023-05-23T08:55:57;94701.06;;;27.10;79.86
20620;BME280;10469;42.720;23.252;2023-05-23T08:58:29;94696.88;;;26.43;90.14
20620;BME280;10469;42.720;23.252;2023-05-23T09:00:54;94693.25;;;28.49;76.01
20620;BME280;10469;42.720;23.252;2023-05-23T09:03:21;94684.81;;;28.42;67.87
20620;BME280;10469;42.720;23.252;2023-05-23T09:05:48;94682.72;;;27.55;71.57
20620;BME280;10469;42.720;23.252;2023-05-23T09:08:15;94684.97;;;28.96;63.32
20620;BME280;10469;42.720;23.252;2023-05-23T09:10:41;94692.88;;;29.14;57.74
20620;BME280;10469;42.720;23.252;2023-05-23T09:13:06;94682.25;;;28.21;64.27
20620;BME280;10469;42.720;23.252;2023-05-23T09:15:34;94691.50;;;27.85;68.36
20620;BME280;10469;42.720;23.252;2023-05-23T09:18:00;94675.56;;;28.50;64.06
20620;BME280;10469;42.720;23.252;2023-05-23T09:20:29;94670.16;;;28.25;50.09
20620;BME280;10469;42.720;23.252;2023-05-23T09:22:55;94679.97;;;27.95;53.01
20620;BME280;10469;42.720;23.252;2023-05-23T09:25:20;94672.69;;;31.41;45.22
20620;BME280;10469;42.720;23.252;2023-05-23T09:27:46;94675.69;;;29.20;51.36
20620;BME280;10469;42.720;23.252;2023-05-23T09:30:12;94663.25;;;30.23;42.91
20620;BME280;10469;42.720;23.252;2023-05-23T09:32:38;94664.47;;;30.95;41.75
20620;BME280;10469;42.720;23.252;2023-05-23T09:35:05;94670.59;;;29.58;43.42
20620;BME280;10469;42.720;23.252;2023-05-23T09:37:41;94668.28;;;29.44;44.76
20620;BME280;10469;42.720;23.252;2023-05-23T09:40:09;94659.78;;;28.98;45.75
20620;BME280;10469;42.720;23.252;2023-05-23T09:42:36;94652.66;;;29.67;45.95
20620;BME280;10469;42.720;23.252;2023-05-23T09:45:06;94653.47;;;29.33;48.74
20620;BME280;10469;42.720;23.252;2023-05-23T09:47:32;94637.31;;;30.32;43.35
20620;BME280;10469;42.720;23.252;2023-05-23T09:49:57;94646.31;;;29.86;40.04
20620;BME280;10469;42.720;23.252;2023-05-23T09:52:23;94649.34;;;30.20;39.11
20620;BME280;10469;42.720;23.252;2023-05-23T09:54:48;94647.88;;;30.49;42.24
20620;BME280;10469;42.720;23.252;2023-05-23T09:57:14;94644.31;;;29.29;46.16
20620;BME280;10469;42.720;23.252;2023-05-23T09:59:52;94635.84;;;29.02;46.09
20620;BME280;10469;42.720;23.252;2023-05-23T10:02:45;94637.97;;;27.30;51.33
20620;BME280;10469;42.720;23.252;2023-05-23T10:05:44;94629.75;;;26.81;52.29
20620;BME280;10469;42.720;23.252;2023-05-23T10:08:10;94631.50;;;27.78;49.56
20620;BME280;10469;42.720;23.252;2023-05-23T10:13:30;94634.19;;;27.90;41.21
20620;BME280;10469;42.720;23.252;2023-05-23T10:19:02;94629.06;;;29.54;38.60
20620;BME280;10469;42.720;23.252;2023-05-23T10:21:39;94647.03;;;29.64;35.38
20620;BME280;10469;42.720;23.252;2023-05-23T10:24:07;94628.91;;;29.47;35.92
20620;BME280;10469;42.720;23.252;2023-05-23T10:26:33;94643.97;;;28.47;39.74
20620;BME280;10469;42.720;23.252;2023-05-23T10:28:59;94642.28;;;26.66;44.29
20620;BME280;10469;42.720;23.252;2023-05-23T10:31:26;94624.34;;;29.74;37.92
20620;BME280;10469;42.720;23.252;2023-05-23T10:34:07;94622.38;;;29.74;37.39
20620;BME280;10469;42.720;23.252;2023-05-23T10:36:52;94607.66;;;29.32;36.29
20620;BME280;10469;42.720;23.252;2023-05-23T10:39:56;94617.25;;;27.76;37.52
20620;BME280;10469;42.720;23.252;2023-05-23T10:42:33;94616.81;;;27.74;40.05
20620;BME280;10469;42.720;23.252;2023-05-23T10:45:20;94628.03;;;26.39;40.96
20620;BME280;10469;42.720;23.252;2023-05-23T10:47:47;94595.41;;;26.62;43.65
20620;BME280;10469;42.720;23.252;2023-05-23T10:50:15;94586.25;;;27.51;42.30
20620;BME280;10469;42.720;23.252;2023-05-23T10:52:41;94590.88;;;30.21;36.90
20620;BME280;10469;42.720;23.252;2023-05-23T10:55:14;94598.16;;;28.94;36.94
20620;BME280;10469;42.720;23.252;2023-05-23T10:57:42;94607.19;;;28.27;37.71
20620;BME280;10469;42.720;23.252;2023-05-23T11:00:13;94602.97;;;27.58;38.05
20620;BME280;10469;42.720;23.252;2023-05-23T11:02:58;94611.63;;;27.04;40.11
20620;BME280;10469;42.720;23.252;2023-05-23T11:05:27;94607.06;;;27.77;39.90
20620;BME280;10469;42.720;23.252;2023-05-23T11:08:12;94593.84;;;28.61;40.32
20620;BME280;10469;42.720;23.252;2023-05-23T11:10:52;94575.84;;;29.38;35.82
20620;BME280;10469;42.720;23.252;2023-05-23T11:13:19;94589.72;;;28.87;37.06
20620;BME280;10469;42.720;23.252;2023-05-23T11:15:46;94591.53;;;28.32;38.69
20620;BME280;10469;42.720;23.252;2023-05-23T11:18:22;94587.75;;;26.56;40.72
20620;BME280;10469;42.720;23.252;2023-05-23T11:20:52;94589.38;;;25.87;43.83
20620;BME280;10469;42.720;23.252;2023-05-23T11:23:19;94584.00;;;26.02;43.27
20620;BME280;10469;42.720;23.252;2023-05-23T11:25:48;94588.38;;;25.58;43.82
20620;BME280;10469;42.720;23.252;2023-05-23T11:28:14;94583.13;;;25.32;47.12
20620;BME280;10469;42.720;23.252;2023-05-23T11:30:41;94588.97;;;26.09;44.85
20620;BME280;10469;42.720;23.252;2023-05-23T11:33:11;94573.75;;;25.12;44.40
20620;BME280;10469;42.720;23.252;2023-05-23T11:35:45;94582.25;;;24.98;47.18
20620;BME280;10469;42.720;23.252;2023-05-23T11:38:13;94564.94;;;24.26;49.37
20620;BME280;10469;42.720;23.252;2023-05-23T11:40:41;94567.59;;;24.94;49.56
20620;BME280;10469;42.720;23.252;2023-05-23T11:43:12;94564.00;;;23.93;51.58
20620;BME280;10469;42.720;23.252;2023-05-23T11:45:39;94572.34;;;23.32;56.03
20620;BME280;10469;42.720;23.252;2023-05-23T11:48:10;94584.16;;;22.32;63.18
20620;BME280;10469;42.720;23.252;2023-05-23T11:50:49;94599.00;;;22.57;65.47
20620;BME280;10469;42.720;23.252;2023-05-23T11:53:15;94565.66;;;22.20;66.53
20620;BME280;10469;42.720;23.252;2023-05-23T11:55:57;94571.66;;;22.48;66.63
20620;BME280;10469;42.720;23.252;2023-05-23T11:58:35;94570.72;;;22.70;68.34
20620;BME280;10469;42.720;23.252;2023-05-23T12:01:08;94563.19;;;22.76;67.54
20620;BME280;10469;42.720;23.252;2023-05-23T12:03:44;94567.50;;;22.68;71.50
20620;BME280;10469;42.720;23.252;2023-05-23T12:06:20;94553.38;;;22.92;70.29
20620;BME280;10469;42.720;23.252;2023-05-23T12:08:47;94557.97;;;23.52;66.42
20620;BME280;10469;42.720;23.252;2023-05-23T12:11:15;94560.31;;;22.98;64.82
20620;BME280;10469;42.720;23.252;2023-05-23T12:13:41;94546.16;;;22.96;64.32
20620;BME280;10469;42.720;23.252;2023-05-23T12:16:07;94545.00;;;23.23;60.73
20620;BME280;10469;42.720;23.252;2023-05-23T12:18:33;94545.97;;;23.27;58.13
20620;BME280;10469;42.720;23.252;2023-05-23T12:21:04;94542.41;;;23.91;56.64
20620;BME280;10469;42.720;23.252;2023-05-23T12:23:33;94546.63;;;23.16;63.73
20620;BME280;10469;42.720;23.252;2023-05-23T12:26:03;94533.59;;;23.13;62.94
20620;BME280;10469;42.720;23.252;2023-05-23T12:28:37;94534.41;;;22.96;65.41
20620;BME280;10469;42.720;23.252;2023-05-23T12:33:39;94537.09;;;23.22;64.01
20620;BME280;10469;42.720;23.252;2023-05-23T12:36:07;94527.63;;;23.19;62.56
20620;BME280;10469;42.720;23.252;2023-05-23T12:38:33;94519.75;;;22.83;69.97
20620;BME280;10469;42.720;23.252;2023-05-23T12:41:18;94537.63;;;22.89;65.18
20620;BME280;10469;42.720;23.252;2023-05-23T12:43:51;94542.75;;;22.56;64.95
20620;BME280;10469;42.720;23.252;2023-05-23T12:46:18;94522.81;;;22.82;62.84
20620;BME280;10469;42.720;23.252;2023-05-23T12:48:43;94523.44;;;23.22;60.06
20620;BME280;10469;42.720;23.252;2023-05-23T12:51:09;94521.91;;;23.50;60.55
20620;BME280;10469;42.720;23.252;2023-05-23T12:53:35;94509.88;;;23.43;58.86
20620;BME280;10469;42.720;23.252;2023-05-23T12:56:01;94502.38;;;23.14;56.29
20620;BME280;10469;42.720;23.252;2023-05-23T12:58:26;94508.34;;;22.98;53.93
20620;BME280;10469;42.720;23.252;2023-05-23T13:00:52;94518.66;;;22.84;55.59
20620;BME280;10469;42.720;23.252;2023-05-23T13:03:18;94508.19;;;22.86;57.17
20620;BME280;10469;42.720;23.252;2023-05-23T13:05:44;94508.34;;;23.16;56.34
20620;BME280;10469;42.720;23.252;2023-05-23T13:08:09;94495.69;;;23.49;51.28
20620;BME280;10469;42.720;23.252;2023-05-23T13:10:36;94482.81;;;23.50;52.87
20620;BME280;10469;42.720;23.252;2023-05-23T13:13:02;94505.63;;;23.71;49.83
20620;BME280;10469;42.720;23.252;2023-05-23T13:15:28;94499.00;;;23.72;52.07